createdAt,value
2022-08-26T00:00:53.302Z,1008.84
2022-08-26T00:01:53.872Z,1008.84
2022-08-26T00:02:53.329Z,1008.87
2022-08-26T00:03:53.429Z,1008.84
2022-08-26T00:04:53.355Z,1008.87
2022-08-26T00:05:53.378Z,1008.83
2022-08-26T00:06:53.390Z,1008.80
2022-08-26T00:07:53.404Z,1008.78
2022-08-26T00:08:53.415Z,1008.80
2022-08-26T00:09:54.472Z,1008.81
2022-08-26T00:10:53.435Z,1008.78
2022-08-26T00:11:53.450Z,1008.80
2022-08-26T00:12:53.467Z,1008.79
2022-08-26T00:13:53.478Z,1008.79
2022-08-26T00:14:53.494Z,1008.78
2022-08-26T00:15:53.509Z,1008.79
2022-08-26T00:16:53.565Z,1008.76
2022-08-26T00:17:53.528Z,1008.76
2022-08-26T00:18:53.540Z,1008.72
2022-08-26T00:19:53.555Z,1008.74
2022-08-26T00:20:53.571Z,1008.74
2022-08-26T00:21:53.587Z,1008.75
2022-08-26T00:22:53.602Z,1008.72
2022-08-26T00:23:53.611Z,1008.73
2022-08-26T00:24:53.620Z,1008.71
2022-08-26T00:25:53.639Z,1008.75
2022-08-26T00:26:53.655Z,1008.72
2022-08-26T00:27:53.657Z,1008.73
2022-08-26T00:28:53.679Z,1008.72
2022-08-26T00:29:53.691Z,1008.77
2022-08-26T00:30:53.706Z,1008.72
2022-08-26T00:31:53.799Z,1008.75
2022-08-26T00:32:53.731Z,1008.72
2022-08-26T00:33:53.745Z,1008.75
2022-08-26T00:34:53.759Z,1008.73
2022-08-26T00:35:53.768Z,1008.73
2022-08-26T00:36:53.784Z,1008.74
2022-08-26T00:37:53.789Z,1008.77
2022-08-26T00:38:53.802Z,1008.78
2022-08-26T00:39:53.854Z,1008.80
2022-08-26T00:40:53.829Z,1008.78
2022-08-26T00:41:53.848Z,1008.79
2022-08-26T00:42:53.861Z,1008.79
2022-08-26T00:43:53.872Z,1008.77
2022-08-26T00:44:53.880Z,1008.82
2022-08-26T00:45:53.932Z,1008.78
2022-08-26T00:46:53.979Z,1008.77
2022-08-26T00:47:53.924Z,1008.78
2022-08-26T00:48:53.939Z,1008.80
2022-08-26T00:49:53.950Z,1008.78
2022-08-26T00:50:53.966Z,1008.81
2022-08-26T00:51:53.969Z,1008.77
2022-08-26T00:52:53.990Z,1008.77
2022-08-26T00:53:54.003Z,1008.78
2022-08-26T00:54:54.017Z,1008.77
2022-08-26T00:55:54.021Z,1008.78
2022-08-26T00:59:19.903Z,1008.74
2022-08-26T01:00:19.920Z,1008.71
2022-08-26T01:01:22.955Z,1008.72
2022-08-26T01:11:08.381Z,1008.62
2022-08-26T01:16:17.609Z,1008.63
2022-08-26T01:17:17.592Z,1008.64
2022-08-26T01:18:17.596Z,1008.65
2022-08-26T01:19:17.608Z,1008.70
2022-08-26T01:20:17.622Z,1008.69
2022-08-26T01:21:17.633Z,1008.65
2022-08-26T01:22:17.655Z,1008.64
2022-08-26T01:23:17.665Z,1008.65
2022-08-26T01:24:17.673Z,1008.65
2022-08-26T01:25:17.684Z,1008.61
2022-08-26T01:26:19.967Z,1008.62
2022-08-26T01:27:17.715Z,1008.62
2022-08-26T01:28:17.722Z,1008.64
2022-08-26T01:29:17.741Z,1008.63
2022-08-26T01:30:17.758Z,1008.65
2022-08-26T01:31:17.789Z,1008.66
2022-08-26T01:32:17.781Z,1008.65
2022-08-26T01:33:17.783Z,1008.63
2022-08-26T01:34:17.798Z,1008.64
2022-08-26T01:35:17.816Z,1008.65
2022-08-26T01:36:17.823Z,1008.65
2022-08-26T01:37:17.837Z,1008.67
2022-08-26T01:38:17.847Z,1008.69
2022-08-26T01:39:17.867Z,1008.70
2022-08-26T01:40:17.916Z,1008.71
2022-08-26T01:41:19.943Z,1008.69
2022-08-26T01:42:17.904Z,1008.68
2022-08-26T01:43:17.910Z,1008.68
2022-08-26T01:44:17.928Z,1008.67
2022-08-26T01:45:17.935Z,1008.65
2022-08-26T01:46:18.070Z,1008.66
2022-08-26T01:47:17.969Z,1008.64
2022-08-26T01:48:17.979Z,1008.63
2022-08-26T01:49:17.986Z,1008.64
2022-08-26T01:59:37.137Z,1008.60
2022-08-26T02:00:37.204Z,1008.57
2022-08-26T02:01:37.161Z,1008.57
2022-08-26T02:02:37.177Z,1008.53
2022-08-26T02:03:38.693Z,1008.58
2022-08-26T02:04:37.228Z,1008.58
2022-08-26T02:05:37.220Z,1008.55
2022-08-26T02:06:37.225Z,1008.58
2022-08-26T02:07:37.235Z,1008.56
2022-08-26T02:08:37.249Z,1008.53
2022-08-26T02:09:38.394Z,1008.54
2022-08-26T02:10:37.268Z,1008.54
2022-08-26T02:11:37.286Z,1008.52
2022-08-26T02:12:37.292Z,1008.50
2022-08-26T02:13:37.304Z,1008.46
2022-08-26T02:14:37.317Z,1008.43
2022-08-26T02:15:37.328Z,1008.45
2022-08-26T02:16:37.414Z,1008.46
2022-08-26T02:17:37.352Z,1008.41
2022-08-26T02:18:37.372Z,1008.43
2022-08-26T02:19:37.376Z,1008.42
2022-08-26T02:20:37.391Z,1008.41
2022-08-26T02:21:37.408Z,1008.44
2022-08-26T02:22:37.413Z,1008.43
2022-08-26T02:23:37.432Z,1008.45
2022-08-26T02:24:37.446Z,1008.43
2022-08-26T02:25:37.457Z,1008.43
2022-08-26T02:26:37.462Z,1008.49
2022-08-26T02:27:37.480Z,1008.44
2022-08-26T02:28:37.486Z,1008.46
2022-08-26T02:29:37.499Z,1008.42
2022-08-26T02:30:37.517Z,1008.46
2022-08-26T02:31:37.541Z,1008.46
2022-08-26T02:32:37.535Z,1008.47
2022-08-26T02:33:37.548Z,1008.49
2022-08-26T02:34:37.565Z,1008.45
2022-08-26T02:35:37.578Z,1008.46
2022-08-26T02:36:37.584Z,1008.45
2022-08-26T02:37:37.597Z,1008.43
2022-08-26T02:38:37.614Z,1008.40
2022-08-26T02:39:37.628Z,1008.40
2022-08-26T02:40:37.634Z,1008.37
2022-08-26T02:41:44.090Z,1008.36
2022-08-26T02:42:37.656Z,1008.34
2022-08-26T02:43:37.676Z,1008.33
2022-08-26T02:44:37.682Z,1008.39
2022-08-26T02:45:37.694Z,1008.35
2022-08-26T02:46:37.768Z,1008.36
2022-08-26T02:47:37.743Z,1008.35
2022-08-26T02:48:37.730Z,1008.37
2022-08-26T02:49:37.753Z,1008.35
2022-08-26T02:50:37.759Z,1008.35
2022-08-26T02:51:37.768Z,1008.36
2022-08-26T02:52:37.786Z,1008.38
2022-08-26T03:11:32.277Z,1008.25
2022-08-26T03:13:19.796Z,1008.24
2022-08-26T04:30:21.329Z,1008.09
2022-08-26T04:53:05.134Z,1008.11
2022-08-26T05:07:09.306Z,1008.16
2022-08-26T05:08:48.436Z,1008.17
2022-08-26T05:21:10.294Z,1008.29
2022-08-26T05:22:10.295Z,1008.30
2022-08-26T05:23:10.433Z,1008.27
2022-08-26T05:24:10.317Z,1008.31
2022-08-26T05:25:10.332Z,1008.31
2022-08-26T05:26:10.351Z,1008.32
2022-08-26T05:27:11.517Z,1008.30
2022-08-26T05:28:10.376Z,1008.30
2022-08-26T05:29:10.384Z,1008.31
2022-08-26T05:30:10.391Z,1008.35
2022-08-26T05:31:10.456Z,1008.31
2022-08-26T05:32:11.267Z,1008.33
2022-08-26T05:33:10.668Z,1008.33
2022-08-26T05:34:10.439Z,1008.33
2022-08-26T05:35:10.453Z,1008.36
2022-08-26T05:36:10.463Z,1008.38
2022-08-26T05:37:10.478Z,1008.37
2022-08-26T05:38:12.853Z,1008.36
2022-08-26T05:39:10.870Z,1008.39
2022-08-26T05:40:10.542Z,1008.39
2022-08-26T05:41:10.527Z,1008.37
2022-08-26T05:42:10.539Z,1008.34
2022-08-26T05:43:10.605Z,1008.34
2022-08-26T05:44:10.553Z,1008.34
2022-08-26T05:45:10.566Z,1008.35
2022-08-26T05:46:10.652Z,1008.34
2022-08-26T05:47:10.596Z,1008.35
2022-08-26T05:48:10.601Z,1008.35
2022-08-26T05:49:12.232Z,1008.36
2022-08-26T05:50:10.631Z,1008.35
2022-08-26T05:51:10.648Z,1008.36
2022-08-26T05:52:10.655Z,1008.37
2022-08-26T05:53:10.669Z,1008.32
2022-08-26T05:54:10.719Z,1008.33
2022-08-26T05:56:13.273Z,1008.31
2022-08-26T05:57:13.285Z,1008.35
2022-08-26T05:58:13.296Z,1008.36
2022-08-26T05:59:14.416Z,1008.33
2022-08-26T06:00:13.327Z,1008.33
2022-08-26T06:01:13.369Z,1008.30
2022-08-26T06:02:13.345Z,1008.33
2022-08-26T06:03:13.435Z,1008.34
2022-08-26T06:04:13.369Z,1008.25
2022-08-26T06:05:13.380Z,1008.32
2022-08-26T06:06:13.394Z,1008.28
2022-08-26T06:07:13.423Z,1008.27
2022-08-26T06:08:13.417Z,1008.23
2022-08-26T06:09:13.435Z,1008.24
2022-08-26T06:10:31.470Z,1008.20
2022-08-26T06:11:18.609Z,1008.22
2022-08-26T06:12:13.465Z,1008.19
2022-08-26T06:13:13.614Z,1008.18
2022-08-26T06:14:13.498Z,1008.16
2022-08-26T06:15:13.511Z,1008.15
2022-08-26T06:16:13.589Z,1008.15
2022-08-26T06:17:13.527Z,1008.12
2022-08-26T06:18:13.538Z,1008.15
2022-08-26T06:19:13.553Z,1008.14
2022-08-26T06:20:13.563Z,1008.18
2022-08-26T06:21:13.585Z,1008.16
2022-08-26T06:22:13.588Z,1008.17
2022-08-26T06:23:13.602Z,1008.19
2022-08-26T06:24:13.619Z,1008.19
2022-08-26T06:25:13.626Z,1008.21
2022-08-26T08:34:49.320Z,1007.87
2022-08-26T08:35:46.698Z,1007.86
2022-08-26T08:36:46.710Z,1007.88
2022-08-26T08:37:46.731Z,1007.82
